Time;durP1;ratioP1;P1;durP2;ratioP2;P2;SDS_P1;SDS_P2;PMS_P1;PMS_P2;Temp;Humidity;BMP_temperature;BMP_pressure;BME280_temperature;BME280_humidity;BME280_pressure;Samples;Min_cycle;Max_cycle;Signal;HPM_P1;HPM_P2
2023/01/05 00:04:18;;;;;;;0.62;0.62;;;;;;;10.77;65.79;100927.19;18361169;32;20112;-61
2023/01/05 00:24:45;;;;;;;1.27;1.17;;;;;;;10.57;66.70;100852.25;18360570;32;20093;-61
2023/01/05 00:34:53;;;;;;;1.65;1.55;;;;;;;10.95;64.95;100848.03;18359594;32;20097;-61
2023/01/05 00:44:56;;;;;;;0.90;0.90;;;;;;;10.85;63.88;100857.59;18359447;32;20117;-61
2023/01/05 00:55:00;;;;;;;1.48;0.82;;;;;;;10.32;66.09;100862.50;18402793;31;20364;-61
2023/01/05 01:05:05;;;;;;;14.90;2.60;;;;;;;10.20;66.75;100842.47;18422527;32;20145;-61
2023/01/05 01:15:10;;;;;;;0.80;0.80;;;;;;;9.94;68.16;100870.94;18422207;32;20119;-61
2023/01/05 01:25:13;;;;;;;1.00;0.77;;;;;;;9.96;69.31;100867.50;18421878;32;20153;-61
2023/01/05 01:35:18;;;;;;;0.57;0.57;;;;;;;10.35;68.61;100852.12;18421405;32;20089;-61
2023/01/05 01:45:22;;;;;;;0.47;0.47;;;;;;;10.53;67.74;100825.25;18420068;32;20122;-61
2023/01/05 01:55:27;;;;;;;1.48;0.93;;;;;;;10.52;67.28;100823.53;18420186;31;20093;-61
2023/01/05 02:05:31;;;;;;;2.90;2.55;;;;;;;10.29;66.75;100805.09;18420103;32;20105;-61
2023/01/05 02:15:42;;;;;;;1.15;1.15;;;;;;;9.94;66.63;100797.91;18421023;32;20165;-61
2023/01/05 02:26:05;;;;;;;1.70;1.10;;;;;;;9.81;67.10;100803.06;18419381;32;20148;-61
2023/01/05 02:36:15;;;;;;;3.22;2.10;;;;;;;9.81;66.86;100774.38;18418542;32;20085;-61
2023/01/05 02:46:18;;;;;;;0.90;0.90;;;;;;;9.85;66.85;100755.25;18418776;32;20090;-60
2023/01/05 02:56:25;;;;;;;0.60;0.60;;;;;;;10.16;69.18;100727.63;18419304;31;20106;-60
2023/01/05 03:06:31;;;;;;;0.80;0.80;;;;;;;10.43;68.99;100703.41;18427342;32;20126;-61
2023/01/05 03:16:38;;;;;;;0.60;0.60;;;;;;;10.49;69.65;100699.94;18427290;32;20098;-61
2023/01/05 03:37:08;;;;;;;0.98;0.98;;;;;;;10.65;69.82;100679.97;18426139;32;20110;-61
2023/01/05 03:47:12;;;;;;;0.70;0.70;;;;;;;10.59;70.91;100631.22;18425891;32;20108;-61
2023/01/05 03:57:17;;;;;;;1.40;1.37;;;;;;;10.68;70.26;100612.97;18419873;32;162870;-60
2023/01/05 04:07:20;;;;;;;0.80;0.80;;;;;;;10.41;70.72;100601.62;18424392;32;20097;-61
2023/01/05 04:17:25;;;;;;;1.25;1.23;;;;;;;10.25;70.16;100603.28;18424387;32;20115;-61
2023/01/05 04:27:28;;;;;;;1.05;1.05;;;;;;;10.20;69.92;100591.12;18424321;32;20137;-61
2023/01/05 04:37:33;;;;;;;1.25;1.25;;;;;;;10.25;70.10;100574.59;18423825;32;20100;-61
2023/01/05 04:47:36;;;;;;;0.60;0.60;;;;;;;10.44;69.81;100553.78;18423496;32;20085;-61
2023/01/05 04:57:40;;;;;;;0.75;0.75;;;;;;;10.77;69.89;100551.19;18422379;32;20161;-61
2023/01/05 05:07:44;;;;;;;0.70;0.70;;;;;;;11.33;67.34;100541.47;18422671;32;20164;-61
2023/01/05 05:17:48;;;;;;;0.50;0.50;;;;;;;11.17;67.56;100550.25;18422186;32;20399;-61
2023/01/05 05:27:51;;;;;;;0.50;0.50;;;;;;;11.06;67.64;100535.47;18420742;32;20128;-61
2023/01/05 05:37:56;;;;;;;0.50;0.50;;;;;;;11.13;66.81;100518.03;18421426;32;20111;-61
2023/01/05 05:48:00;;;;;;;0.70;0.70;;;;;;;11.08;66.57;100506.72;18421247;32;20096;-61
2023/01/05 05:58:04;;;;;;;0.62;0.62;;;;;;;11.44;65.07;100511.84;18420247;32;20093;-60
2023/01/05 06:08:07;;;;;;;0.60;0.60;;;;;;;11.62;63.73;100511.78;18420212;32;20113;-61
2023/01/05 06:18:12;;;;;;;0.60;0.60;;;;;;;11.65;63.26;100513.47;18419915;32;20111;-61
2023/01/05 06:28:15;;;;;;;0.73;0.73;;;;;;;11.37;63.84;100505.75;18419464;32;20105;-61
2023/01/05 06:38:23;;;;;;;0.60;0.60;;;;;;;11.46;63.33;100486.56;18355381;32;20089;-61
2023/01/05 06:48:27;;;;;;;0.90;0.90;;;;;;;11.57;62.59;100482.16;18354578;32;20116;-61
2023/01/05 06:58:31;;;;;;;0.62;0.62;;;;;;;11.45;63.02;100471.75;18353720;32;20089;-61
2023/01/05 07:08:35;;;;;;;0.60;0.60;;;;;;;11.51;62.43;100461.25;18351728;32;20090;-61
2023/01/05 07:18:39;;;;;;;0.65;0.65;;;;;;;11.62;61.93;100442.91;18353044;32;20490;-61
2023/01/05 07:28:43;;;;;;;0.50;0.50;;;;;;;11.37;62.88;100448.25;18352440;32;20098;-61
2023/01/05 07:38:48;;;;;;;0.70;0.70;;;;;;;11.50;62.69;100426.41;18347233;32;20097;-61
2023/01/05 07:48:51;;;;;;;3.50;1.95;;;;;;;11.88;61.29;100405.25;18353339;32;20497;-61
2023/01/05 07:58:55;;;;;;;0.77;0.77;;;;;;;12.14;60.60;100399.84;18360421;32;20378;-61
2023/01/05 08:10:27;;;;;;;0.60;0.60;;;;;;;12.02;61.43;100382.50;18388024;32;20560;-61
2023/01/05 08:19:53;;;;;;;0.85;0.70;;;;;;;12.32;61.28;100379.63;18383235;32;20101;-59
2023/01/05 08:29:56;;;;;;;0.57;0.57;;;;;;;12.45;61.55;100394.31;18400064;32;20107;-59
2023/01/05 08:40:01;;;;;;;0.40;0.40;;;;;;;12.80;61.28;100381.69;18414557;32;20105;-59
2023/01/05 08:50:06;;;;;;;0.47;0.47;;;;;;;13.12;60.55;100390.94;18359285;32;20098;-59
2023/01/05 09:00:12;;;;;;;0.50;0.50;;;;;;;13.05;60.99;100381.41;18358667;32;20156;-59
2023/01/05 09:10:15;;;;;;;0.40;0.40;;;;;;;12.85;63.53;100398.25;18358659;32;20358;-59
2023/01/05 09:20:20;;;;;;;0.30;0.30;;;;;;;13.91;61.63;100381.09;18357741;32;20453;-59
2023/01/05 09:30:23;;;;;;;0.40;0.40;;;;;;;14.66;59.36;100385.91;18398222;32;20100;-59
2023/01/05 09:40:28;;;;;;;0.30;0.30;;;;;;;14.59;59.02;100383.41;18411900;32;20097;-59
2023/01/05 09:50:31;;;;;;;0.40;0.40;;;;;;;14.82;59.83;100349.69;18355105;32;20475;-59
2023/01/05 10:00:36;;;;;;;0.60;0.60;;;;;;;15.14;57.13;100349.03;18354702;32;20094;-59
2023/01/05 10:10:45;;;;;;;0.35;0.35;;;;;;;14.94;55.98;100379.25;18362853;32;20081;-60
2023/01/05 10:20:58;;;;;;;0.40;0.40;;;;;;;14.62;59.99;100428.88;18418830;32;20100;-60
2023/01/05 10:31:02;;;;;;;0.55;0.55;;;;;;;13.64;65.26;100425.22;18370005;32;20105;-59
2023/01/05 10:41:12;;;;;;;0.30;0.30;;;;;;;13.19;66.86;100407.44;18371862;32;20405;-59
2023/01/05 10:51:15;;;;;;;0.40;0.40;;;;;;;13.28;66.35;100416.97;18408359;32;20103;-59
2023/01/05 11:01:24;;;;;;;0.40;0.40;;;;;;;12.92;66.94;100413.91;18367699;32;20115;-59
2023/01/05 11:11:28;;;;;;;0.40;0.40;;;;;;;12.61;68.16;100408.12;18354211;32;20085;-59
2023/01/05 11:21:44;;;;;;;0.50;0.50;;;;;;;12.48;69.27;100404.75;18358172;32;20116;-59
2023/01/05 11:31:49;;;;;;;0.43;0.43;;;;;;;12.57;68.18;100384.62;18413361;32;20107;-59
2023/01/05 11:42:08;;;;;;;11.02;1.30;;;;;;;12.49;67.69;100400.38;18405577;32;20107;-59
2023/01/05 11:52:26;;;;;;;0.40;0.40;;;;;;;12.64;67.22;100396.72;18361770;32;20116;-59
2023/01/05 12:02:55;;;;;;;0.62;0.60;;;;;;;12.52;67.44;100368.94;18361307;32;20113;-59
2023/01/05 12:13:05;;;;;;;0.40;0.40;;;;;;;12.74;65.53;100374.78;18379233;31;20097;-59
2023/01/05 12:23:27;;;;;;;0.40;0.40;;;;;;;12.79;65.32;100406.16;18360325;32;20153;-59
2023/01/05 12:33:45;;;;;;;0.50;0.50;;;;;;;12.73;64.26;100419.34;18423062;32;20125;-59
2023/01/05 12:44:36;;;;;;;0.40;0.40;;;;;;;12.82;63.75;100431.47;18387628;32;20097;-59
2023/01/05 12:54:43;;;;;;;0.93;0.93;;;;;;;12.70;64.51;100385.31;18359074;32;20668;-59
2023/01/05 13:04:51;;;;;;;0.40;0.40;;;;;;;12.88;63.32;100351.03;18358900;32;20105;-59
2023/01/05 13:15:06;;;;;;;0.40;0.40;;;;;;;12.86;62.72;100351.97;18390238;32;20097;-59
2023/01/05 13:25:17;;;;;;;0.50;0.50;;;;;;;12.93;62.61;100352.75;18365925;32;20133;-59
2023/01/05 13:35:41;;;;;;;0.30;0.30;;;;;;;13.04;61.86;100361.34;18380781;32;20166;-59
2023/01/05 13:46:05;;;;;;;0.30;0.30;;;;;;;12.90;60.51;100370.25;18375819;32;20186;-59
2023/01/05 13:56:19;;;;;;;0.40;0.40;;;;;;;13.10;59.13;100382.25;18356713;32;20490;-59
2023/01/05 14:06:26;;;;;;;0.60;0.60;;;;;;;13.07;59.17;100394.50;18356244;32;20109;-60
2023/01/05 14:16:52;;;;;;;0.62;0.62;;;;;;;13.10;58.89;100405.81;18401938;32;20115;-60
2023/01/05 14:27:03;;;;;;;0.50;0.50;;;;;;;13.10;59.15;100421.56;18402812;31;20101;-59
2023/01/05 14:37:06;;;;;;;0.62;0.62;;;;;;;12.90;60.03;100427.91;18354831;32;20097;-59
2023/01/05 14:47:11;;;;;;;0.37;0.37;;;;;;;12.72;59.64;100428.09;18403090;32;20089;-59
2023/01/05 14:57:34;;;;;;;0.50;0.50;;;;;;;12.51;58.96;100406.47;18423544;31;20107;-60
2023/01/05 15:07:44;;;;;;;0.77;0.77;;;;;;;12.73;57.94;100416.75;18412991;32;20124;-60
2023/01/05 15:18:01;;;;;;;0.50;0.50;;;;;;;13.11;58.42;100441.63;18392372;32;20108;-59
2023/01/05 15:28:57;;;;;;;0.40;0.40;;;;;;;13.00;56.03;100438.28;18372733;32;20129;-60
2023/01/05 15:39:01;;;;;;;0.40;0.40;;;;;;;12.99;55.33;100447.88;18377193;32;20148;-60
2023/01/05 15:49:06;;;;;;;0.50;0.50;;;;;;;12.93;54.76;100439.22;18387895;32;20117;-60
2023/01/05 15:59:22;;;;;;;0.40;0.40;;;;;;;12.93;54.33;100442.69;18357830;32;20140;-59
2023/01/05 16:09:30;;;;;;;0.40;0.40;;;;;;;13.13;54.26;100459.94;18390550;31;20172;-59
2023/01/05 16:19:37;;;;;;;0.50;0.50;;;;;;;13.09;54.26;100453.00;18377846;32;20161;-60
2023/01/05 16:29:43;;;;;;;0.50;0.50;;;;;;;13.02;54.15;100458.31;18376728;32;20089;-60
2023/01/05 16:39:46;;;;;;;0.40;0.40;;;;;;;12.87;53.92;100448.03;18358594;32;20093;-59
2023/01/05 16:49:51;;;;;;;0.50;0.50;;;;;;;13.18;53.20;100468.63;18358996;32;20097;-60
2023/01/05 17:00:00;;;;;;;0.50;0.50;;;;;;;13.08;53.15;100467.00;18422019;32;20182;-60
2023/01/05 17:10:06;;;;;;;0.47;0.47;;;;;;;12.86;53.62;100473.34;18382382;32;20105;-59
2023/01/05 17:20:11;;;;;;;0.40;0.40;;;;;;;13.02;52.90;100473.19;18375521;32;20390;-60
2023/01/05 17:30:19;;;;;;;0.47;0.47;;;;;;;13.12;52.42;100481.78;18352619;32;20361;-60
2023/01/05 17:40:23;;;;;;;0.50;0.50;;;;;;;13.37;52.12;100492.84;18366830;32;20093;-60
2023/01/05 17:50:29;;;;;;;0.40;0.40;;;;;;;12.88;53.59;100496.91;18351889;32;20484;-60
2023/01/05 18:00:43;;;;;;;0.50;0.50;;;;;;;12.84;53.60;100509.16;18354660;32;20112;-59
2023/01/05 18:10:53;;;;;;;0.40;0.40;;;;;;;12.69;53.89;100511.91;18354002;32;20097;-60
2023/01/05 18:20:59;;;;;;;0.30;0.30;;;;;;;12.61;54.22;100515.50;18392107;32;20136;-59
2023/01/05 18:31:11;;;;;;;0.40;0.40;;;;;;;12.61;53.58;100512.00;18394519;32;20099;-60
2023/01/05 18:41:14;;;;;;;0.50;0.50;;;;;;;12.59;53.66;100519.00;18352166;32;20484;-60
2023/01/05 18:51:18;;;;;;;0.37;0.37;;;;;;;12.72;52.92;100519.78;18368568;32;20369;-60
2023/01/05 19:01:23;;;;;;;0.50;0.50;;;;;;;12.45;53.86;100521.75;18350733;32;20090;-59
2023/01/05 19:11:28;;;;;;;0.40;0.40;;;;;;;12.29;54.02;100524.47;18350547;32;20401;-60
2023/01/05 19:21:32;;;;;;;0.50;0.50;;;;;;;12.48;53.48;100529.56;18351635;32;20161;-60
2023/01/05 19:31:37;;;;;;;0.40;0.40;;;;;;;12.55;53.43;100535.59;18351184;32;20092;-60
2023/01/05 19:41:43;;;;;;;0.50;0.50;;;;;;;12.46;53.85;100531.31;18370966;32;20644;-59
2023/01/05 19:51:50;;;;;;;0.52;0.52;;;;;;;12.42;53.19;100520.00;18361053;32;20089;-59
2023/01/05 20:01:54;;;;;;;0.50;0.50;;;;;;;12.16;53.38;100528.06;18359630;32;20102;-60
2023/01/05 20:11:59;;;;;;;0.50;0.50;;;;;;;12.12;54.03;100511.50;18374764;32;20111;-60
2023/01/05 20:22:16;;;;;;;0.50;0.50;;;;;;;12.17;53.58;100527.19;18357830;32;20153;-60
2023/01/05 20:32:28;;;;;;;0.50;0.50;;;;;;;12.00;54.03;100541.19;18374308;32;20090;-59
2023/01/05 20:42:32;;;;;;;0.60;0.60;;;;;;;12.19;53.67;100580.38;18420378;32;20105;-58
2023/01/05 20:52:36;;;;;;;0.50;0.50;;;;;;;12.27;53.85;100557.66;18364632;32;20117;-58
2023/01/05 21:02:40;;;;;;;0.40;0.40;;;;;;;11.98;54.71;100555.16;18356667;32;20119;-58
2023/01/05 21:12:44;;;;;;;0.50;0.50;;;;;;;12.01;55.09;100576.94;18416128;32;20093;-58
2023/01/05 21:22:47;;;;;;;0.50;0.50;;;;;;;12.16;54.83;100581.25;18386477;32;20098;-58
2023/01/05 21:32:52;;;;;;;0.40;0.40;;;;;;;11.92;55.61;100611.00;18354821;32;20085;-58
2023/01/05 21:42:56;;;;;;;0.50;0.50;;;;;;;12.08;55.62;100632.75;18373971;32;20089;-58
2023/01/05 22:03:21;;;;;;;0.40;0.40;;;;;;;12.17;55.40;100671.13;18366922;32;20121;-58
2023/01/05 22:13:27;;;;;;;0.50;0.50;;;;;;;12.08;55.80;100672.00;18357727;32;20154;-58
2023/01/05 22:23:31;;;;;;;0.40;0.40;;;;;;;11.93;55.56;100679.03;18355955;32;20093;-58
2023/01/05 22:33:38;;;;;;;0.40;0.40;;;;;;;12.06;55.22;100687.72;18355444;32;20148;-58
2023/01/05 22:43:42;;;;;;;0.50;0.50;;;;;;;12.06;54.29;100703.44;18354932;32;20102;-58
2023/01/05 22:53:48;;;;;;;0.47;0.47;;;;;;;11.86;55.17;100734.00;18353892;32;20098;-58
2023/01/05 23:03:52;;;;;;;0.40;0.40;;;;;;;11.72;55.03;100741.84;18355047;32;20108;-58
2023/01/05 23:13:58;;;;;;;0.40;0.40;;;;;;;12.19;53.88;100745.25;18355404;32;20097;-58
2023/01/05 23:24:01;;;;;;;0.37;0.37;;;;;;;12.14;54.17;100754.84;18362662;32;20158;-58
2023/01/05 23:34:05;;;;;;;1.75;0.77;;;;;;;11.94;55.06;100760.97;18392960;31;20114;-58
2023/01/05 23:44:10;;;;;;;3.05;0.60;;;;;;;12.12;54.69;100788.00;18630796;31;20087;-58
2023/01/05 23:54:15;;;;;;;0.40;0.40;;;;;;;11.97;55.08;100815.94;18629622;31;20104;-58
